Flight Track Log - Related Links

Times and Time Zones

All times are in EDT time to prevent confusion due to time zone crossing. See the SWA1496 flight status page for this flight to view local times or setup timezone preferences in your user account.

Time Position Orientation Groundspeed Altitude Reporting Facility
EDT Latitude Longitude Course Direction KTS MPH feet Rate Location/Type
Sat 09:17:33 AM 39.1667 -76.7167 288° West 165 190 1,800  Level Potomac TRACON
Sat 09:18:34 AM 39.1833 -76.7833 288° West 218 251 5,100 3,757 Climbing Potomac TRACON
Sat 09:19:28 AM 39.1833 -76.8667 270° West 237 273 9,000 3,632 Climbing Potomac TRACON
Sat 09:20:28 AM 39.2000 -76.9500 284° West 263 303 12,000 2,650 Climbing Potomac TRACON
Sat 09:21:28 AM 39.2000 -77.0667 270° West 322 371 14,300 2,727 Climbing Potomac TRACON
Sat 09:22:29 AM 39.1833 -77.1833 260° West 340 391 17,500 2,926 Climbing Potomac TRACON
Sat 09:23:29 AM 39.1000 -77.2500 212° Southwest 363 418 20,200 2,700 Climbing Potomac TRACON
Sat 09:24:29 AM 39.0167 -77.3167 212° Southwest 375 432 22,900 1,400 Climbing Potomac TRACON
Sat 09:25:29 AM 38.9167 -77.3500 195° South 405 466 23,000 50 Climbing Potomac TRACON
Sat 09:26:30 AM 38.8000 -77.3833 193° South 402 463 23,000  Level Potomac TRACON
Sat 09:27:30 AM 38.6833 -77.4000 186° South 397 457 23,000 322 Level Potomac TRACON
Sat 09:28:59 AM 38.5525 -77.4767 205° Southwest 395 455 23,800 846 Climbing Washington Center
Sat 09:29:59 AM 38.4558 -77.5350 205° Southwest 395 455 25,100 1,450 Climbing Washington Center
Sat 09:30:59 AM 38.3522 -77.6119 210° Southwest 395 455 26,700 950 Climbing Washington Center
Sat 09:31:59 AM 38.2694 -77.6994 220° Southwest 395 455 27,000 150 Climbing Washington Center
Sat 09:32:59 AM 38.1864 -77.7897 221° Southwest 395 455 27,000 650 Level Washington Center
Sat 09:33:59 AM 38.1036 -77.8794 220° Southwest 395 455 28,300 1,600 Climbing Washington Center
Sat 09:34:59 AM 38.0353 -77.9514 220° Southwest 395 455 30,200 1,850 Climbing Washington Center
Sat 09:35:59 AM 37.9503 -78.0408 220° Southwest 381 438 32,000 900 Climbing Washington Center
Sat 09:36:59 AM 37.8711 -78.1250 220° Southwest 376 433 32,000  Level Washington Center
Sat 09:37:59 AM 37.7944 -78.2067 220° Southwest 376 433 32,000  Level Washington Center
Sat 09:38:59 AM 37.7153 -78.2906 220° Southwest 371 427 32,000 650 Level Washington Center
Sat 09:39:59 AM 37.6300 -78.3767 219° Southwest 371 427 33,300 1,450 Climbing Washington Center
Sat 09:40:59 AM 37.5531 -78.4575 220° Southwest 371 427 34,900 1,500 Climbing Washington Center
Sat 09:41:59 AM 37.4761 -78.5358 219° Southwest 365 420 36,300 1,300 Climbing Washington Center
Sat 09:42:59 AM 37.3989 -78.6164 220° Southwest 365 420 37,500 1,000 Climbing Washington Center
Sat 09:43:59 AM 37.3261 -78.6894 219° Southwest 365 420 38,300 1,000 Climbing Washington Center
Sat 09:44:59 AM 37.2467 -78.7697 219° Southwest 365 420 39,500 850 Climbing Washington Center
Sat 09:45:59 AM 37.1675 -78.8497 219° Southwest 365 420 40,000 250 Climbing Washington Center
Sat 09:46:59 AM 37.0881 -78.9297 219° Southwest 365 420 40,000  Level Washington Center
Sat 09:47:59 AM 37.0086 -79.0122 220° Southwest 365 420 40,000  Level Washington Center
Sat 09:48:59 AM 36.9206 -79.0992 218° Southwest 365 420 40,000  Level Washington Center
Sat 09:49:59 AM 36.8431 -79.1814 220° Southwest 365 420 40,000  Level Washington Center
Sat 09:50:59 AM 36.7633 -79.2606 219° Southwest 365 420 40,000  Level Washington Center
Sat 09:51:59 AM 36.6836 -79.3397 219° Southwest 365 420 40,000  Level Washington Center
Sat 09:52:59 AM 36.6039 -79.4211 219° Southwest 365 420 40,000  Level Washington Center
Sat 09:53:59 AM 36.5306 -79.4925 218° Southwest 370 426 40,000  Level Washington Center
Sat 09:54:59 AM 36.4486 -79.5736 219° Southwest 375 432 40,000  Level Washington Center
Sat 09:57:27 AM 36.2389 -79.7783 218° Southwest 374 430 40,000  Level Atlanta Center
Sat 09:58:27 AM 36.1581 -79.8597 219° Southwest 380 437 40,000  Level Atlanta Center
Sat 09:59:27 AM 36.0733 -79.9386 217° Southwest 380 437 40,000  Level Atlanta Center
Sat 10:00:27 AM 35.9917 -79.9992 211° Southwest 380 437 40,000  Level Atlanta Center
Sat 10:01:27 AM 35.8933 -80.0503 203° Southwest 380 437 40,000  Level Atlanta Center
Sat 10:02:27 AM 35.7969 -80.1011 203° Southwest 380 437 40,000  Level Atlanta Center
Sat 10:03:27 AM 35.6983 -80.1494 202° Southwest 385 443 40,000  Level Atlanta Center
Sat 10:04:27 AM 35.5917 -80.2056 203° Southwest 385 443 40,000  Level Atlanta Center
Sat 10:05:27 AM 35.4889 -80.2561 202° Southwest 391 450 40,000  Level Atlanta Center
Sat 10:06:27 AM 35.3922 -80.3039 202° Southwest 388 447 40,000  Level Atlanta Center
Sat 10:07:27 AM 35.2917 -80.3542 202° Southwest 388 447 40,000  Level Atlanta Center
Sat 10:09:15 AM 35.1183 -80.4386 202° Southwest 393 452 40,000  Level Jacksonville Center
Sat 10:10:15 AM 35.0150 -80.4897 202° Southwest 393 452 40,000  Level Jacksonville Center
Sat 10:11:16 AM 34.9181 -80.5381 202° Southwest 395 455 40,000  Level Jacksonville Center
Sat 10:12:15 AM 34.8250 -80.5886 204° Southwest 395 455 40,000  Level Jacksonville Center
Sat 10:13:15 AM 34.7197 -80.6419 203° Southwest 382 440 40,000  Level Jacksonville Center
Sat 10:14:15 AM 34.6183 -80.6900 201° Southwest 387 445 40,000  Level Jacksonville Center
Sat 10:15:15 AM 34.4983 -80.7536 204° Southwest 415 478 40,000  Level Jacksonville Center
Sat 10:16:15 AM 34.3950 -80.7989 200° South 405 466 40,000  Level Jacksonville Center
Sat 10:17:16 AM 34.2956 -80.8442 201° Southwest 393 452 40,000  Level Jacksonville Center
Sat 10:18:15 AM 34.1983 -80.8917 202° Southwest 393 452 40,000  Level Jacksonville Center
Sat 10:19:15 AM 34.0839 -80.9117 188° South 393 452 40,000  Level Jacksonville Center
Sat 10:20:15 AM 33.9714 -80.9269 186° South 405 466 40,000  Level Jacksonville Center
Sat 10:21:15 AM 33.8567 -80.9369 184° South 412 474 40,000  Level Jacksonville Center
Sat 10:22:15 AM 33.7422 -80.9494 185° South 412 474 40,000  Level Jacksonville Center
Sat 10:23:15 AM 33.6275 -80.9594 184° South 412 474 40,000  Level Jacksonville Center
Sat 10:24:15 AM 33.5128 -80.9694 184° South 417 480 40,000  Level Jacksonville Center
Sat 10:25:15 AM 33.3983 -80.9819 185° South 417 480 40,000  Level Jacksonville Center
Sat 10:26:16 AM 33.2836 -80.9917 184° South 417 480 40,000  Level Jacksonville Center
Sat 10:27:15 AM 33.1692 -81.0042 185° South 422 486 40,000  Level Jacksonville Center
Sat 10:28:15 AM 33.0544 -81.0139 184° South 422 486 40,000  Level Jacksonville Center
Sat 10:29:16 AM 32.9419 -81.0261 185° South 422 486 40,000  Level Jacksonville Center
Sat 10:30:15 AM 32.8250 -81.0361 184° South 422 486 40,000  Level Jacksonville Center
Sat 10:31:15 AM 32.7083 -81.0458 184° South 422 486 40,000  Level Jacksonville Center
Sat 10:32:15 AM 32.6042 -81.0603 187° South 421 484 40,000  Level Jacksonville Center
Sat 10:33:15 AM 32.4769 -81.0703 184° South 426 490 40,000  Level Jacksonville Center
Sat 10:34:15 AM 32.3539 -81.0800 184° South 437 503 40,000  Level Jacksonville Center
Sat 10:35:16 AM 32.2350 -81.0897 184° South 436 502 40,000  Level Jacksonville Center
Sat 10:36:15 AM 32.1183 -81.1019 185° South 430 495 40,000  Level Jacksonville Center
Sat 10:37:15 AM 32.0017 -81.1117 184° South 430 495 40,000  Level Jacksonville Center
Sat 10:38:16 AM 31.8806 -81.1211 184° South 425 489 40,000  Level Jacksonville Center
Sat 10:39:15 AM 31.7661 -81.1333 185° South 418 481 40,000 -403 Level Jacksonville Center
Sat 10:40:15 AM 31.6533 -81.1428 184° South 418 481 39,200 -843 Descending Jacksonville Center
Sat 10:41:16 AM 31.5533 -81.1519 184° South 410 472 38,300 -950 Descending Jacksonville Center
Sat 10:42:15 AM 31.4303 -81.1614 184° South 404 465 37,300 -1,008 Descending Jacksonville Center
Sat 10:43:15 AM 31.3197 -81.1756 186° South 405 466 36,300 -942 Descending Jacksonville Center
Sat 10:44:16 AM 31.2092 -81.1728 179° South 405 466 35,400 -900 Descending Jacksonville Center
Sat 10:45:15 AM 31.0942 -81.1675 178° South 405 466 34,500 -706 Descending Jacksonville Center
Sat 10:46:15 AM 30.9833 -81.1647 179° South 410 472 34,000 -347 Descending Jacksonville Center
Sat 10:47:16 AM 30.8664 -81.1622 179° South 410 472 33,800 -600 Descending Jacksonville Center
Sat 10:48:15 AM 30.7536 -81.1594 179° South 410 472 32,800 -1,059 Descending Jacksonville Center
Sat 10:49:15 AM 30.6367 -81.1542 178° South 410 472 31,700 -1,041 Descending Jacksonville Center
Sat 10:50:16 AM 30.5197 -81.1517 179° South 421 484 30,700 -850 Descending Jacksonville Center
Sat 10:51:15 AM 30.4069 -81.1464 178° South 416 479 30,000 -353 Descending Jacksonville Center
Sat 10:52:15 AM 30.2900 -81.1414 178° South 416 479 30,000  Level Jacksonville Center
Sat 10:53:16 AM 30.1750 -81.1386 179° South 416 479 30,000  Level Jacksonville Center
Sat 10:54:15 AM 30.0583 -81.1383 180° South 421 484 30,000 -202 Level Jacksonville Center
Sat 10:55:15 AM 29.9433 -81.1333 178° South 421 484 29,600 -694 Descending Jacksonville Center
Sat 10:56:16 AM 29.8283 -81.1306 179° South 421 484 28,600 -1,100 Descending Jacksonville Center
Sat 10:57:15 AM 29.7283 -81.1275 178° South 416 479 27,400 -800 Descending Jacksonville Center
Sat 10:58:16 AM 29.6175 -81.1247 179° South 411 473 27,000 -1,091 Descending Jacksonville Center
Sat 10:59:16 AM 29.5047 -81.1219 179° South 405 466 25,200 -2,550 Descending Jacksonville Center
Sat 11:00:16 AM 29.3817 -81.1194 179° South 405 466 21,900 -3,429 Descending Jacksonville Center
Sat 11:01:15 AM 29.2647 -81.1144 178° South 418 481 18,400 -3,300 Descending Jacksonville Center
Sat 11:02:16 AM 29.1517 -81.1022 175° South 418 481 15,300 -3,000 Descending Jacksonville Center
Sat 11:03:15 AM 29.0431 -81.0922 175° South 398 458 12,400 -1,650 Descending Jacksonville Center
Sat 11:04:16 AM 28.9406 -81.0822 175° South 370 426 12,000 -545 Descending Jacksonville Center
Sat 11:05:16 AM 28.8678 -81.0908 186° South 329 379 11,300 -1,050 Descending Jacksonville Center
Sat 11:06:16 AM 28.7886 -81.1064 190° South 302 348 9,900 -1,122 Descending Jacksonville Center
Sat 11:07:19 AM 28.7000 -81.1167 186° South 272 313 9,000 -439 Descending Orlando TRACON
Sat 11:08:19 AM 28.6333 -81.1500 204° Southwest 268 308 9,000  Level Orlando TRACON
Sat 11:09:19 AM 28.5500 -81.1667 190° South 265 305 9,000 -446 Level Orlando TRACON
Sat 11:10:20 AM 28.5000 -81.1833 196° South 238 274 8,100 -1,181 Descending Orlando TRACON
Sat 11:11:26 AM 28.4333 -81.2000 192° South 233 268 6,500 -1,667 Descending Orlando TRACON
Sat 11:12:26 AM 28.3667 -81.2000 180° South 229 264 4,600 -1,750 Descending Orlando TRACON
Sat 11:13:26 AM 28.3000 -81.2167 192° South 228 262 3,000 -1,252 Descending Orlando TRACON
Sat 11:14:21 AM 28.3000 -81.2833 270° West 208 239 2,200 -783 Descending Orlando TRACON
Sat 11:15:21 AM 28.3333 -81.3000 336° Northwest 154 177 1,500 -750 Descending Orlando TRACON
Sat 11:16:21 AM 28.3833 -81.3000 360° North 136 157 700 -800 Descending Orlando TRACON
Sat 11:18:00 AM 28.4167 -81.3000 230° Southwest  Level FlightAware Approximate
Sat 11:25:00 AM 28.4294 -81.3090 230° Southwest  Level Estimated
Sat 11:26:00 AM 28.4294 -81.3090 230° Southwest  Level Estimated
Sat 11:27:00 AM 28.4294 -81.3090 230° Southwest  Level Estimated
Sat 11:28:00 AM 28.4294 -81.3090 230° Southwest  Level Estimated

Login

Don't have an account? Register now (free) for customized features, flight alerts, and more!